Time;durP1;ratioP1;P1;durP2;ratioP2;P2;SDS_P1;SDS_P2;PMS_P1;PMS_P2;Temp;Humidity;BMP_temperature;BMP_pressure;BME280_temperature;BME280_humidity;BME280_pressure;Samples;Min_cycle;Max_cycle;Signal;HPM_P1;HPM_P2
2021/07/04 00:00:43;;;;;;;7.20;5.15;;;20.20;99.90;;;;;;5046981;28;20021;-81
2021/07/04 00:03:09;;;;;;;7.00;4.60;;;20.20;99.90;;;;;;5047726;28;20036;-76
2021/07/04 00:05:46;;;;;;;5.47;4.07;;;20.20;99.90;;;;;;5049082;28;20484;-77
2021/07/04 00:08:15;;;;;;;7.20;4.30;;;20.20;99.90;;;;;;5048133;28;20484;-79
2021/07/04 00:10:46;;;;;;;6.18;3.92;;;20.20;99.90;;;;;;5065507;28;20035;-76
2021/07/04 00:13:12;;;;;;;6.22;4.07;;;20.10;99.90;;;;;;5066129;28;20025;-77
2021/07/04 00:15:41;;;;;;;7.32;4.53;;;20.20;99.90;;;;;;5055586;28;20036;-76
2021/07/04 00:18:10;;;;;;;6.07;4.28;;;20.20;99.90;;;;;;5050850;28;20017;-76
2021/07/04 00:20:37;;;;;;;7.30;4.68;;;20.10;99.90;;;;;;5055575;28;20097;-76
2021/07/04 00:23:03;;;;;;;5.60;4.00;;;20.10;99.90;;;;;;5048643;28;20062;-77
2021/07/04 00:25:29;;;;;;;6.10;4.13;;;20.00;99.90;;;;;;5071767;28;20063;-77
2021/07/04 00:27:57;;;;;;;6.55;4.38;;;20.00;99.90;;;;;;5050026;28;20029;-77
2021/07/04 00:30:22;;;;;;;6.00;4.50;;;20.00;99.90;;;;;;5053056;28;20031;-76
2021/07/04 00:32:48;;;;;;;7.68;4.35;;;20.00;99.90;;;;;;5067938;28;20024;-78
2021/07/04 00:35:15;;;;;;;6.18;4.53;;;20.00;99.90;;;;;;5064918;28;20028;-77
2021/07/04 00:37:41;;;;;;;6.93;4.30;;;21.90;99.90;;;;;;5049385;28;20302;-77
2021/07/04 00:40:08;;;;;;;5.90;4.20;;;21.40;99.90;;;;;;5065680;28;20665;-76
2021/07/04 00:42:34;;;;;;;6.85;4.80;;;20.00;99.90;;;;;;5047300;28;20114;-78
2021/07/04 00:44:59;;;;;;;9.63;4.47;;;;;;;;;;5046203;28;20083;-76
2021/07/04 00:47:25;;;;;;;7.20;4.50;;;19.90;99.90;;;;;;5051557;28;20476;-80
2021/07/04 00:49:51;;;;;;;8.50;4.63;;;19.80;99.90;;;;;;5065387;28;20443;-78
2021/07/04 00:52:17;;;;;;;9.32;4.47;;;19.80;99.90;;;;;;5065378;28;20054;-78
2021/07/04 00:54:42;;;;;;;6.57;4.38;;;19.80;99.90;;;;;;5047526;28;20021;-77
2021/07/04 00:57:09;;;;;;;5.90;4.28;;;19.80;99.90;;;;;;5047782;28;20032;-78
2021/07/04 00:59:34;;;;;;;6.25;4.40;;;19.80;99.90;;;;;;5065058;28;20032;-77
2021/07/04 01:02:00;;;;;;;6.57;4.38;;;19.80;99.90;;;;;;5060522;28;20028;-77
2021/07/04 01:04:28;;;;;;;8.38;4.68;;;19.80;99.90;;;;;;5068429;28;20086;-76
2021/07/04 01:06:54;;;;;;;7.90;4.65;;;20.10;99.90;;;;;;5053899;28;20029;-78
2021/07/04 01:09:21;;;;;;;5.43;4.10;;;;;;;;;;5046680;28;20031;-76
2021/07/04 01:11:47;;;;;;;10.05;5.07;;;19.90;99.90;;;;;;5050969;28;20512;-78
2021/07/04 01:14:13;;;;;;;7.78;5.10;;;;;;;;;;5069115;28;20028;-76
2021/07/04 01:16:39;;;;;;;6.40;4.20;;;;;;;;;;5046943;28;20079;-76
2021/07/04 01:19:06;;;;;;;13.63;7.15;;;19.90;99.90;;;;;;5048446;28;20075;-79
2021/07/04 01:21:33;;;;;;;7.35;4.22;;;19.90;99.90;;;;;;5068526;28;20512;-77
2021/07/04 01:24:00;;;;;;;6.53;4.22;;;;;;;;;;5066509;28;20040;-77
2021/07/04 01:26:25;;;;;;;5.90;4.15;;;20.00;99.90;;;;;;5067726;28;20017;-76
2021/07/04 01:28:51;;;;;;;7.72;4.32;;;20.00;99.90;;;;;;5049700;28;20470;-79
2021/07/04 01:31:19;;;;;;;5.63;4.30;;;20.10;99.90;;;;;;5050403;28;20257;-76
2021/07/04 01:33:45;;;;;;;6.90;4.25;;;;;;;;;;5058615;28;20127;-76
2021/07/04 01:36:12;;;;;;;7.05;4.50;;;;;;;;;;5058458;28;20027;-76
2021/07/04 01:38:38;;;;;;;7.30;4.47;;;20.10;99.90;;;;;;5067561;28;20115;-78
2021/07/04 01:41:04;;;;;;;6.28;4.47;;;20.10;99.90;;;;;;5055807;28;20503;-76
2021/07/04 01:43:30;;;;;;;6.05;4.63;;;20.10;99.90;;;;;;5048257;28;20530;-76
2021/07/04 01:45:56;;;;;;;10.90;6.50;;;20.00;99.90;;;;;;5068700;28;20017;-77
2021/07/04 01:48:22;;;;;;;6.43;4.72;;;;;;;;;;5052001;28;20484;-76
2021/07/04 01:50:49;;;;;;;6.10;4.20;;;19.90;99.90;;;;;;5068696;28;20036;-76
2021/07/04 01:53:16;;;;;;;9.13;5.30;;;;;;;;;;5046292;28;20021;-78
2021/07/04 01:55:42;;;;;;;5.80;4.30;;;;;;;;;;5046944;28;20025;-76
2021/07/04 01:58:08;;;;;;;5.78;4.35;;;19.70;99.90;;;;;;5051275;28;20070;-76
2021/07/04 02:00:35;;;;;;;6.63;4.32;;;19.60;99.90;;;;;;5051264;28;20435;-77
2021/07/04 02:03:03;;;;;;;7.80;4.82;;;19.60;99.90;;;;;;5068614;28;20025;-77
2021/07/04 02:05:29;;;;;;;6.38;4.60;;;19.80;99.90;;;;;;5066682;28;20071;-78
2021/07/04 02:07:55;;;;;;;6.78;4.53;;;19.60;99.90;;;;;;5055645;28;20028;-77
2021/07/04 02:10:25;;;;;;;10.18;4.57;;;22.60;99.90;;;;;;5054882;28;20150;-76
2021/07/04 02:12:51;;;;;;;6.35;4.88;;;;;;;;;;5065933;28;20032;-77
2021/07/04 02:15:20;;;;;;;5.53;4.43;;;19.50;99.90;;;;;;5071509;28;20103;-80
2021/07/04 02:17:46;;;;;;;5.72;4.07;;;;;;;;;;5054232;28;20044;-76
2021/07/04 02:20:33;;;;;;;6.25;4.70;;;19.50;99.90;;;;;;5049689;28;20024;-81
2021/07/04 02:23:09;;;;;;;5.82;4.30;;;19.40;99.90;;;;;;5051833;28;20036;-79
2021/07/04 02:25:37;;;;;;;6.85;4.55;;;19.40;99.90;;;;;;5050903;28;20033;-76
2021/07/04 02:28:04;;;;;;;6.25;4.30;;;19.40;99.90;;;;;;5047682;28;20495;-77
2021/07/04 02:30:30;;;;;;;6.22;4.32;;;;;;;;;;5055730;28;20028;-76
2021/07/04 02:33:00;;;;;;;5.55;3.83;;;;;;;;;;5057476;28;20021;-78
2021/07/04 02:35:26;;;;;;;6.70;4.03;;;;;;;;;;5051469;28;20490;-79
2021/07/04 02:37:52;;;;;;;4.85;3.92;;;19.40;99.90;;;;;;5052075;28;20028;-76
2021/07/04 02:40:17;;;;;;;4.03;3.00;;;19.30;99.90;;;;;;5066648;28;20115;-77
2021/07/04 02:42:43;;;;;;;10.95;5.68;;;;;;;;;;5065406;28;20081;-75
2021/07/04 02:45:10;;;;;;;5.25;3.33;;;19.40;99.90;;;;;;5067134;28;20032;-76
2021/07/04 02:47:36;;;;;;;5.50;3.40;;;;;;;;;;5048731;28;20403;-76
2021/07/04 02:50:06;;;;;;;6.00;3.47;;;19.40;99.90;;;;;;5050199;28;20017;-80
2021/07/04 02:52:32;;;;;;;;;;;19.40;99.90;;;;;;5067012;28;20248;-76
2021/07/04 02:54:58;;;;;;;5.45;3.38;;;;;;;;;;5065338;28;19939;-79
2021/07/04 02:57:24;;;;;;;4.75;3.15;;;;;;;;;;5046717;28;20074;-76
2021/07/04 02:59:49;;;;;;;6.35;3.80;;;19.30;99.90;;;;;;5053376;28;20029;-76
2021/07/04 03:02:15;;;;;;;5.05;3.50;;;19.30;99.90;;;;;;5061509;28;20024;-76
2021/07/04 03:04:41;;;;;;;5.22;3.50;;;19.30;99.90;;;;;;5069841;28;20442;-76
2021/07/04 03:07:07;;;;;;;5.47;3.28;;;;;;;;;;5068444;28;20060;-78
2021/07/04 03:09:32;;;;;;;6.70;3.63;;;19.30;99.90;;;;;;5068576;28;20383;-76
2021/07/04 03:11:58;;;;;;;5.28;3.50;;;19.20;99.90;;;;;;5048786;28;20017;-77
2021/07/04 03:14:25;;;;;;;5.60;3.63;;;;;;;;;;5049399;28;20032;-79
2021/07/04 03:16:51;;;;;;;6.53;3.42;;;;;;;;;;5064343;28;20396;-78
2021/07/04 03:19:16;;;;;;;5.43;3.38;;;19.20;99.90;;;;;;5049557;28;20036;-77
2021/07/04 03:21:42;;;;;;;5.55;3.83;;;19.20;99.90;;;;;;5050066;28;20709;-77
2021/07/04 03:24:07;;;;;;;5.03;3.10;;;19.20;99.90;;;;;;5063376;28;20591;-81
2021/07/04 03:26:33;;;;;;;6.03;3.60;;;19.20;99.90;;;;;;5068345;28;20029;-76
2021/07/04 03:28:59;;;;;;;5.85;3.60;;;19.20;99.90;;;;;;5065915;28;20063;-76
2021/07/04 03:31:24;;;;;;;5.85;3.38;;;20.00;99.90;;;;;;5066631;28;20055;-76
2021/07/04 03:33:50;;;;;;;5.47;3.40;;;19.20;99.90;;;;;;5067048;28;20037;-76
2021/07/04 03:36:16;;;;;;;4.72;3.67;;;19.20;99.90;;;;;;5050889;28;20059;-80
2021/07/04 03:38:42;;;;;;;4.57;3.03;;;19.20;99.90;;;;;;5066052;28;20047;-76
2021/07/04 03:41:07;;;;;;;5.05;3.22;;;20.60;99.90;;;;;;5068328;28;20032;-77
2021/07/04 03:43:33;;;;;;;4.93;3.22;;;19.30;99.90;;;;;;5059363;28;20033;-76
2021/07/04 03:45:59;;;;;;;7.32;3.47;;;;;;;;;;5069305;28;20032;-76
2021/07/04 03:48:25;;;;;;;6.55;3.50;;;19.20;99.90;;;;;;5049405;28;20025;-76
2021/07/04 03:50:50;;;;;;;7.03;3.80;;;19.30;99.90;;;;;;5064675;28;20028;-77
2021/07/04 03:53:16;;;;;;;6.85;3.85;;;19.20;99.90;;;;;;5053630;28;20040;-77
2021/07/04 03:55:41;;;;;;;5.97;4.05;;;19.20;99.90;;;;;;5070339;28;20100;-78
2021/07/04 03:58:07;;;;;;;5.55;3.60;;;19.20;99.90;;;;;;5050137;28;20024;-78
2021/07/04 04:00:33;;;;;;;6.70;4.00;;;;;;;;;;5055860;28;20476;-77
2021/07/04 04:02:58;;;;;;;6.50;3.90;;;19.20;99.90;;;;;;5051293;28;20032;-77
2021/07/04 04:05:24;;;;;;;7.50;3.75;;;19.80;99.90;;;;;;5065746;28;20404;-79
2021/07/04 04:07:50;;;;;;;6.15;3.90;;;;;;;;;;5067596;28;20032;-76
2021/07/04 04:10:16;;;;;;;7.05;4.07;;;;;;;;;;5067797;28;20059;-78
2021/07/04 04:12:42;;;;;;;5.45;3.88;;;19.00;99.90;;;;;;5051567;28;20060;-76
2021/07/04 04:15:09;;;;;;;5.53;3.95;;;19.00;99.90;;;;;;5068037;28;20482;-76
2021/07/04 04:17:35;;;;;;;6.10;3.92;;;19.10;99.90;;;;;;5066770;28;20024;-80
2021/07/04 04:20:01;;;;;;;6.28;3.97;;;;;;;;;;5065974;28;20443;-79
2021/07/04 04:22:27;;;;;;;5.55;4.10;;;;;;;;;;5065939;28;20484;-76
2021/07/04 04:24:53;;;;;;;8.48;4.05;;;;;;;;;;5065212;28;20081;-80
2021/07/04 04:27:19;;;;;;;7.57;4.13;;;18.90;99.90;;;;;;5065880;28;20036;-76
2021/07/04 04:29:45;;;;;;;6.55;4.18;;;;;;;;;;5064097;28;20024;-81
2021/07/04 04:32:11;;;;;;;8.32;4.43;;;;;;;;;;5045284;28;20111;-76
2021/07/04 04:34:37;;;;;;;6.25;4.03;;;18.90;99.90;;;;;;5049736;28;20115;-78
2021/07/04 04:37:03;;;;;;;6.35;4.65;;;18.90;99.90;;;;;;5044325;28;20028;-75
2021/07/04 04:39:29;;;;;;;5.88;3.92;;;;;;;;;;5063429;28;20117;-77
2021/07/04 04:41:55;;;;;;;8.07;4.95;;;19.00;99.90;;;;;;5063641;28;20059;-77
2021/07/04 04:44:20;;;;;;;6.15;4.43;;;19.00;99.90;;;;;;5051044;28;20024;-76
2021/07/04 04:46:46;;;;;;;7.32;4.63;;;;;;;;;;5050565;28;20038;-79
2021/07/04 04:49:13;;;;;;;6.47;4.47;;;;;;;;;;5067936;28;20028;-76
2021/07/04 04:51:39;;;;;;;7.65;5.50;;;;;;;;;;5068645;28;20025;-76
2021/07/04 04:54:05;;;;;;;7.60;4.93;;;18.90;99.90;;;;;;5062774;28;20107;-76
2021/07/04 04:56:31;;;;;;;6.45;4.47;;;;;;;;;;5064235;28;20474;-76
2021/07/04 04:58:57;;;;;;;6.70;4.68;;;;;;;;;;5068940;28;20024;-78
2021/07/04 05:01:26;;;;;;;8.95;5.25;;;;;;;;;;5070625;28;20071;-76
2021/07/04 05:03:52;;;;;;;8.93;5.10;;;18.90;99.90;;;;;;5046762;28;20036;-76
2021/07/04 05:06:17;;;;;;;7.47;4.72;;;18.90;99.90;;;;;;5064666;28;20377;-76
2021/07/04 05:08:43;;;;;;;7.07;4.15;;;18.90;99.90;;;;;;5052611;28;20495;-76
2021/07/04 05:11:09;;;;;;;7.57;4.80;;;19.00;99.90;;;;;;5068249;28;20029;-78
2021/07/04 05:13:35;;;;;;;6.50;4.80;;;;;;;;;;5064683;28;20028;-76
2021/07/04 05:16:01;;;;;;;8.23;5.40;;;;;;;;;;5070299;28;20081;-77
2021/07/04 05:18:27;;;;;;;8.32;5.65;;;;;;;;;;5063394;28;20017;-76
2021/07/04 05:20:53;;;;;;;9.15;5.88;;;19.10;99.90;;;;;;5050676;28;20077;-79
2021/07/04 05:23:19;;;;;;;8.35;5.75;;;;;;;;;;5051447;28;20554;-77
2021/07/04 05:25:45;;;;;;;8.00;5.25;;;;;;;;;;5051186;28;20024;-77
2021/07/04 05:28:11;;;;;;;8.10;5.75;;;19.10;99.90;;;;;;5064257;28;20039;-78
2021/07/04 05:30:36;;;;;;;8.85;5.50;;;19.20;99.90;;;;;;5066572;28;20029;-76
2021/07/04 05:33:02;;;;;;;8.38;5.00;;;19.20;99.90;;;;;;5065203;28;20024;-76
2021/07/04 05:35:28;;;;;;;11.15;5.97;;;;;;;;;;5045388;28;20110;-76
2021/07/04 05:37:54;;;;;;;8.85;6.05;;;19.10;99.90;;;;;;5071708;28;20032;-78
2021/07/04 05:40:20;;;;;;;8.20;5.90;;;;;;;;;;5068253;28;20123;-77
2021/07/04 05:42:46;;;;;;;8.55;6.00;;;;;;;;;;5072942;28;20040;-78
2021/07/04 05:45:16;;;;;;;7.55;5.75;;;19.10;99.90;;;;;;5073951;28;20510;-78
2021/07/04 05:47:42;;;;;;;10.98;6.55;;;;;;;;;;5073660;28;20024;-77
2021/07/04 05:50:08;;;;;;;8.77;6.25;;;;;;;;;;5048179;28;20522;-76
2021/07/04 05:52:34;;;;;;;7.90;5.60;;;;;;;;;;5062617;28;20111;-77
2021/07/04 05:55:00;;;;;;;10.00;6.28;;;19.10;99.90;;;;;;5074153;28;20033;-76
2021/07/04 05:57:25;;;;;;;7.72;5.90;;;19.00;99.90;;;;;;5055517;28;20036;-76
2021/07/04 05:59:51;;;;;;;7.88;5.80;;;;;;;;;;5047395;28;20036;-76
2021/07/04 06:02:17;;;;;;;8.48;6.00;;;;;;;;;;5064650;28;20025;-80
2021/07/04 06:04:43;;;;;;;7.50;5.30;;;19.00;99.90;;;;;;5063544;28;20179;-77
2021/07/04 06:07:09;;;;;;;11.02;5.75;;;;;;;;;;5066518;28;20075;-76
2021/07/04 06:09:34;;;;;;;6.88;5.28;;;19.20;99.90;;;;;;5051957;28;20103;-76
2021/07/04 06:12:00;;;;;;;7.75;5.03;;;19.20;99.90;;;;;;5072050;28;20025;-76
2021/07/04 06:14:26;;;;;;;7.22;5.25;;;19.20;99.90;;;;;;5055242;28;20545;-76
2021/07/04 06:16:51;;;;;;;8.88;6.00;;;19.40;99.90;;;;;;5055274;28;20074;-76
2021/07/04 06:19:18;;;;;;;8.40;4.90;;;19.40;99.90;;;;;;5069240;28;20035;-77
2021/07/04 06:21:43;;;;;;;7.75;5.50;;;19.50;99.90;;;;;;5065509;28;20025;-80
2021/07/04 06:24:09;;;;;;;6.68;4.47;;;;;;;;;;5056169;28;20369;-77
2021/07/04 06:26:35;;;;;;;6.63;5.00;;;;;;;;;;5072508;28;20074;-77
2021/07/04 06:29:01;;;;;;;6.22;4.30;;;19.60;99.90;;;;;;5054292;28;20027;-77
2021/07/04 06:31:29;;;;;;;7.38;4.75;;;20.70;99.90;;;;;;5072100;28;20024;-76
2021/07/04 06:33:57;;;;;;;5.43;3.47;;;19.80;99.90;;;;;;5055026;28;20031;-76
2021/07/04 06:36:24;;;;;;;5.65;3.65;;;19.70;99.90;;;;;;5071272;28;20032;-80
2021/07/04 06:38:51;;;;;;;5.43;3.45;;;;;;;;;;5074472;28;20068;-78
2021/07/04 06:41:16;;;;;;;4.85;3.40;;;19.70;99.90;;;;;;5053114;28;20122;-82
2021/07/04 06:43:42;;;;;;;5.45;4.18;;;19.70;99.90;;;;;;5070204;28;20452;-78
2021/07/04 06:46:08;;;;;;;7.00;3.88;;;19.80;99.90;;;;;;5067825;28;20032;-82
2021/07/04 06:48:34;;;;;;;5.00;3.45;;;19.70;99.90;;;;;;5056239;28;20442;-76
2021/07/04 06:50:59;;;;;;;6.55;4.88;;;19.60;99.90;;;;;;5073970;28;20056;-76
2021/07/04 06:53:25;;;;;;;6.40;4.18;;;;;;;;;;5071902;28;20408;-76
2021/07/04 06:55:51;;;;;;;5.90;4.10;;;;;;;;;;5074350;28;20651;-76
2021/07/04 06:58:17;;;;;;;6.43;3.80;;;19.70;99.90;;;;;;5069656;28;20025;-76
2021/07/04 07:00:43;;;;;;;5.35;4.15;;;;;;;;;;5070842;28;20032;-76
2021/07/04 07:03:09;;;;;;;5.68;3.78;;;;;;;;;;5050282;28;20029;-77
2021/07/04 07:05:34;;;;;;;8.13;3.75;;;19.90;99.90;;;;;;5065535;28;20086;-76
2021/07/04 07:08:00;;;;;;;5.45;3.70;;;20.10;99.90;;;;;;5072784;28;20025;-76
2021/07/04 07:10:26;;;;;;;6.78;3.72;;;;;;;;;;5050518;28;20036;-80
2021/07/04 07:12:52;;;;;;;5.80;4.22;;;20.10;99.90;;;;;;5070146;28;20068;-76
2021/07/04 07:15:18;;;;;;;6.50;4.07;;;;;;;;;;5072258;28;20501;-76
2021/07/04 07:17:43;;;;;;;6.30;4.18;;;20.20;99.90;;;;;;5068565;28;20096;-77
2021/07/04 07:20:09;;;;;;;7.72;4.20;;;20.00;99.90;;;;;;5071245;28;20381;-77
2021/07/04 07:22:36;;;;;;;8.98;5.30;;;19.90;99.90;;;;;;5053765;28;20020;-77
2021/07/04 07:25:03;;;;;;;6.80;4.90;;;19.80;99.90;;;;;;5073085;28;20424;-76
2021/07/04 07:27:29;;;;;;;5.75;4.50;;;;;;;;;;5050031;28;20111;-77
2021/07/04 07:29:55;;;;;;;6.85;4.78;;;19.70;99.90;;;;;;5068310;28;20499;-79
2021/07/04 07:32:20;;;;;;;7.28;5.22;;;19.60;99.90;;;;;;5055474;28;20028;-77
2021/07/04 07:34:46;;;;;;;7.70;5.78;;;19.60;99.90;;;;;;5073121;28;20050;-78
2021/07/04 07:37:13;;;;;;;9.32;6.07;;;;;;;;;;5067903;28;20499;-76
2021/07/04 07:39:39;;;;;;;11.43;6.05;;;19.40;99.90;;;;;;5064961;28;20032;-79
2021/07/04 07:42:05;;;;;;;9.38;5.85;;;19.30;99.90;;;;;;5054228;28;20031;-78
2021/07/04 07:44:31;;;;;;;10.65;5.97;;;19.30;99.90;;;;;;5075790;28;20286;-78
2021/07/04 07:46:56;;;;;;;9.63;6.03;;;19.30;99.90;;;;;;5073699;28;20025;-78
2021/07/04 07:49:23;;;;;;;9.75;6.47;;;;;;;;;;5059331;28;20016;-77
2021/07/04 07:51:49;;;;;;;8.32;5.68;;;19.00;99.90;;;;;;5071272;28;20109;-78
2021/07/04 07:54:19;;;;;;;10.57;6.63;;;19.10;99.90;;;;;;5072164;28;20032;-78
2021/07/04 07:56:46;;;;;;;9.02;6.07;;;19.00;99.90;;;;;;5071364;28;20046;-78
2021/07/04 07:59:12;;;;;;;8.25;6.18;;;;;;;;;;5053482;28;20036;-78
2021/07/04 08:01:38;;;;;;;10.60;6.35;;;;;;;;;;5057846;28;20021;-77
2021/07/04 08:04:03;;;;;;;9.00;6.10;;;19.00;99.90;;;;;;5072775;28;20024;-78
2021/07/04 08:06:29;;;;;;;9.02;5.95;;;;;;;;;;5059585;28;20081;-78
2021/07/04 08:08:55;;;;;;;8.27;5.60;;;;;;;;;;5069104;28;20507;-80
2021/07/04 08:11:21;;;;;;;8.68;5.03;;;;;;;;;;5072529;28;20035;-78
2021/07/04 08:13:47;;;;;;;8.13;5.72;;;;;;;;;;5074543;28;20025;-78
2021/07/04 08:16:16;;;;;;;8.20;5.30;;;19.00;99.90;;;;;;5055382;28;20071;-78
2021/07/04 08:18:42;;;;;;;8.60;6.00;;;;;;;;;;5055743;28;20028;-77
2021/07/04 08:21:07;;;;;;;7.88;5.20;;;19.00;99.90;;;;;;5069332;28;20112;-78
2021/07/04 08:23:33;;;;;;;6.82;4.88;;;;;;;;;;5054490;28;20025;-78
2021/07/04 08:25:59;;;;;;;8.05;5.15;;;;;;;;;;5060189;28;20043;-78
2021/07/04 08:28:25;;;;;;;8.48;5.72;;;;;;;;;;5070087;28;20031;-78
2021/07/04 08:30:51;;;;;;;9.70;5.47;;;;;;;;;;5062544;28;20021;-78
2021/07/04 08:33:17;;;;;;;8.15;5.40;;;;;;;;;;5074379;28;20028;-78
2021/07/04 08:35:43;;;;;;;8.15;5.60;;;;;;;;;;5056016;28;20021;-77
2021/07/04 08:38:09;;;;;;;7.10;4.78;;;;;;;;;;5069087;28;20035;-78
2021/07/04 08:40:36;;;;;;;6.25;4.55;;;;;;;;;;5058613;28;20024;-78
2021/07/04 08:43:03;;;;;;;7.85;5.40;;;19.40;99.90;;;;;;5072562;28;20082;-78
2021/07/04 08:45:29;;;;;;;8.02;5.18;;;;;;;;;;5070899;28;20514;-77
2021/07/04 08:48:00;;;;;;;7.20;4.20;;;19.40;99.90;;;;;;5055570;28;20527;-77
2021/07/04 08:50:26;;;;;;;5.20;3.80;;;;;;;;;;5075362;28;20016;-78
2021/07/04 08:52:52;;;;;;;5.80;3.90;;;;;;;;;;5071500;28;20087;-79
2021/07/04 08:55:18;;;;;;;6.03;4.40;;;;;;;;;;5069825;28;20060;-81
2021/07/04 08:57:44;;;;;;;6.57;4.68;;;;;;;;;;5049326;28;20171;-78
2021/07/04 09:00:15;;;;;;;5.95;4.15;;;19.50;99.90;;;;;;5071843;28;20066;-77
2021/07/04 09:02:42;;;;;;;8.77;4.50;;;19.40;99.90;;;;;;5060356;28;20033;-77
2021/07/04 09:05:10;;;;;;;6.50;4.30;;;19.30;99.90;;;;;;5076308;28;20028;-78
2021/07/04 09:07:38;;;;;;;8.65;5.25;;;19.20;99.90;;;;;;5052837;28;20032;-83
2021/07/04 09:10:06;;;;;;;7.18;5.22;;;19.10;99.90;;;;;;5069440;28;20556;-80
2021/07/04 09:12:44;;;;;;;7.88;4.97;;;19.00;99.90;;;;;;5059537;28;20036;-79
2021/07/04 09:15:16;;;;;;;8.40;5.35;;;18.90;99.90;;;;;;5090576;28;20092;-79
2021/07/04 09:17:45;;;;;;;7.82;5.18;;;18.90;99.90;;;;;;5087092;28;20025;-78
2021/07/04 09:20:18;;;;;;;7.43;5.03;;;18.90;99.90;;;;;;5075856;28;20069;-80
2021/07/04 09:22:46;;;;;;;7.50;5.10;;;18.80;99.90;;;;;;5053862;28;20020;-78
2021/07/04 09:25:18;;;;;;;5.45;3.78;;;18.80;99.90;;;;;;5056116;28;20020;-78
2021/07/04 09:28:13;;;;;;;6.95;4.45;;;18.80;99.90;;;;;;5082864;28;20039;-78
2021/07/04 09:30:42;;;;;;;7.63;4.63;;;18.60;99.90;;;;;;5076166;28;20078;-78
2021/07/04 09:33:18;;;;;;;6.90;4.53;;;18.50;99.90;;;;;;5068152;28;20059;-78
2021/07/04 09:35:58;;;;;;;6.13;4.10;;;18.60;99.90;;;;;;5067398;28;20036;-80
2021/07/04 09:38:29;;;;;;;8.30;4.53;;;18.60;99.90;;;;;;5057383;28;20043;-77
2021/07/04 09:40:55;;;;;;;7.07;4.15;;;;;;;;;;5071371;28;20032;-78
2021/07/04 09:43:21;;;;;;;7.10;4.78;;;18.50;99.90;;;;;;5056139;28;20056;-80
2021/07/04 09:45:49;;;;;;;6.72;4.40;;;18.50;99.90;;;;;;5051592;28;20040;-82
2021/07/04 09:48:36;;;;;;;8.70;5.47;;;18.50;99.90;;;;;;5054065;28;20032;-78
2021/07/04 09:51:11;;;;;;;6.90;4.95;;;;;;;;;;5034351;28;20041;-78
2021/07/04 09:53:53;;;;;;;8.10;5.32;;;18.60;99.90;;;;;;5071136;28;20021;-78
2021/07/04 09:56:27;;;;;;;8.88;5.00;;;18.60;99.90;;;;;;5068804;28;20039;-78
2021/07/04 09:58:55;;;;;;;6.93;5.05;;;18.60;99.90;;;;;;5068911;28;20031;-77
2021/07/04 10:01:30;;;;;;;8.60;5.32;;;18.40;99.90;;;;;;5069912;28;20017;-77
2021/07/04 10:03:56;;;;;;;8.35;5.45;;;;;;;;;;5052031;28;20413;-77
2021/07/04 10:06:22;;;;;;;7.50;5.25;;;18.60;99.90;;;;;;5069782;28;20025;-78
2021/07/04 10:08:48;;;;;;;9.23;5.78;;;18.60;99.90;;;;;;5072844;28;20372;-79
2021/07/04 10:11:15;;;;;;;8.35;5.78;;;18.50;99.90;;;;;;5071448;28;20025;-80
2021/07/04 10:13:45;;;;;;;8.23;6.10;;;18.50;99.90;;;;;;5056810;28;20120;-77
2021/07/04 10:16:16;;;;;;;9.43;6.25;;;18.40;99.90;;;;;;5052907;28;20092;-77
2021/07/04 10:18:46;;;;;;;8.05;5.00;;;18.40;99.90;;;;;;5072299;28;20029;-77
2021/07/04 10:21:13;;;;;;;5.68;4.28;;;18.40;99.90;;;;;;5071946;28;20522;-78
2021/07/04 10:23:45;;;;;;;5.35;3.70;;;18.40;99.90;;;;;;5072315;28;20127;-79
2021/07/04 10:26:11;;;;;;;5.85;3.80;;;18.50;99.90;;;;;;5057922;28;20042;-78
2021/07/04 10:28:38;;;;;;;14.95;5.13;;;18.50;99.90;;;;;;5059101;28;20025;-77
2021/07/04 10:31:09;;;;;;;5.30;3.30;;;18.50;99.90;;;;;;5060293;28;20020;-77
2021/07/04 10:33:35;;;;;;;4.25;3.28;;;;;;;;;;5063029;28;20092;-78
2021/07/04 10:36:20;;;;;;;5.70;3.38;;;18.30;99.90;;;;;;5079106;28;20055;-77
2021/07/04 10:38:55;;;;;;;4.03;2.58;;;18.10;99.90;;;;;;5075624;28;20044;-78
2021/07/04 10:41:24;;;;;;;3.13;2.03;;;18.00;99.90;;;;;;5056926;28;20028;-77
2021/07/04 10:44:08;;;;;;;5.32;2.42;;;18.00;99.90;;;;;;5074474;28;20040;-78
2021/07/04 10:46:43;;;;;;;4.22;2.70;;;18.00;99.90;;;;;;5072417;28;20017;-83
2021/07/04 10:49:12;;;;;;;5.38;3.42;;;18.10;99.90;;;;;;5054870;28;20070;-78
2021/07/04 10:52:04;;;;;;;4.72;3.00;;;18.10;99.90;;;;;;5055407;28;20024;-77
2021/07/04 10:54:39;;;;;;;3.67;2.38;;;18.20;99.90;;;;;;5073984;28;20071;-77
2021/07/04 10:57:25;;;;;;;3.45;2.10;;;19.50;99.90;;;;;;5075782;28;20032;-78
2021/07/04 11:00:06;;;;;;;4.18;2.88;;;18.30;99.90;;;;;;5076137;28;20024;-78
2021/07/04 11:02:54;;;;;;;3.30;2.05;;;18.50;99.90;;;;;;5076683;28;20032;-78
2021/07/04 11:05:31;;;;;;;4.10;2.50;;;18.50;99.90;;;;;;5059260;28;20073;-77
2021/07/04 11:07:57;;;;;;;3.45;1.98;;;18.60;99.90;;;;;;5077309;28;20048;-77
2021/07/04 11:10:26;;;;;;;2.85;1.70;;;18.80;99.90;;;;;;5064488;28;20024;-78
2021/07/04 11:13:18;;;;;;;3.53;1.70;;;18.80;99.90;;;;;;5092420;28;20016;-78
2021/07/04 11:15:50;;;;;;;3.00;1.60;;;18.90;99.90;;;;;;5063417;28;20060;-80
2021/07/04 11:18:20;;;;;;;3.60;2.17;;;19.00;99.90;;;;;;5078397;28;20034;-80
2021/07/04 11:20:47;;;;;;;2.53;1.55;;;;;;;;;;5058702;28;20500;-78
2021/07/04 11:23:24;;;;;;;2.30;1.50;;;19.20;99.90;;;;;;5071098;28;20033;-78
2021/07/04 11:25:52;;;;;;;2.85;1.80;;;;;;;;;;5072984;28;20187;-78
2021/07/04 11:28:18;;;;;;;2.28;1.70;;;;;;;;;;5066502;28;20039;-79
2021/07/04 11:30:45;;;;;;;3.13;1.85;;;19.70;99.90;;;;;;5051796;28;20020;-77
2021/07/04 11:33:40;;;;;;;3.53;1.92;;;19.70;99.90;;;;;;5058294;28;20051;-77
2021/07/04 11:36:14;;;;;;;2.33;1.65;;;19.90;99.90;;;;;;5072185;28;20369;-80
2021/07/04 11:38:44;;;;;;;3.10;1.80;;;20.10;99.90;;;;;;5063126;28;20403;-78
2021/07/04 11:41:17;;;;;;;3.50;2.20;;;20.50;99.90;;;;;;5089719;28;20024;-79
2021/07/04 11:43:43;;;;;;;2.13;1.45;;;20.60;99.90;;;;;;5062127;28;20028;-79
2021/07/04 11:46:15;;;;;;;2.95;1.42;;;20.50;99.90;;;;;;5066795;28;20099;-79
2021/07/04 11:49:09;;;;;;;2.42;1.58;;;20.50;99.90;;;;;;5070185;28;20528;-77
2021/07/04 11:51:35;;;;;;;2.67;1.40;;;;;;;;;;5073154;28;20763;-77
2021/07/04 11:54:11;;;;;;;2.30;1.25;;;21.20;99.90;;;;;;5068551;28;20032;-77
2021/07/04 11:56:39;;;;;;;2.50;1.67;;;21.40;99.90;;;;;;5085565;28;20073;-77
2021/07/04 11:59:23;;;;;;;2.17;1.48;;;21.50;99.90;;;;;;5068579;28;20028;-77
2021/07/04 12:02:00;;;;;;;2.20;1.20;;;22.10;99.90;;;;;;5048084;28;20029;-77
2021/07/04 12:04:44;;;;;;;1.98;1.20;;;22.20;99.90;;;;;;5076454;28;20035;-77
2021/07/04 12:07:12;;;;;;;1.73;1.23;;;22.40;99.90;;;;;;5053888;28;20028;-77
2021/07/04 12:09:48;;;;;;;2.88;1.60;;;22.60;99.90;;;;;;5056718;28;20027;-77
2021/07/04 12:12:28;;;;;;;2.10;1.40;;;22.70;99.90;;;;;;5063997;28;20078;-78
2021/07/04 12:14:59;;;;;;;3.17;1.60;;;22.80;99.90;;;;;;5064198;28;20028;-79
2021/07/04 12:17:35;;;;;;;6.53;3.92;;;22.90;99.90;;;;;;5077305;28;20039;-78
2021/07/04 12:20:12;;;;;;;2.30;1.70;;;23.20;99.90;;;;;;5077658;28;20054;-77
2021/07/04 12:22:52;;;;;;;2.20;1.45;;;23.10;99.90;;;;;;5074583;28;20479;-77
2021/07/04 12:25:19;;;;;;;2.17;1.30;;;;;;;;;;5058297;28;20052;-77
2021/07/04 12:28:00;;;;;;;2.55;1.60;;;23.10;99.90;;;;;;5054838;28;20029;-77
2021/07/04 12:30:26;;;;;;;1.83;1.30;;;;;;;;;;5057870;28;20078;-78
2021/07/04 12:32:57;;;;;;;2.25;1.48;;;23.50;99.90;;;;;;5079806;28;20025;-78
2021/07/04 12:35:30;;;;;;;2.38;1.40;;;23.50;99.90;;;;;;5064883;28;20020;-79
2021/07/04 12:38:03;;;;;;;2.75;1.55;;;23.40;99.90;;;;;;5069946;28;20040;-77
2021/07/04 12:40:46;;;;;;;2.78;1.70;;;23.40;99.90;;;;;;5071429;28;20028;-77
2021/07/04 12:43:14;;;;;;;2.47;1.60;;;23.20;99.90;;;;;;5057992;28;20557;-77
2021/07/04 12:45:54;;;;;;;3.28;1.70;;;24.50;99.90;;;;;;5060083;28;20081;-77
2021/07/04 12:48:21;;;;;;;2.58;1.70;;;23.30;99.90;;;;;;5072082;28;20025;-78
2021/07/04 12:50:59;;;;;;;2.67;1.85;;;23.40;99.90;;;;;;5052987;28;20040;-78
2021/07/04 12:53:43;;;;;;;2.28;1.48;;;23.70;99.90;;;;;;5065829;28;20024;-76
2021/07/04 12:56:23;;;;;;;2.17;1.63;;;23.80;99.90;;;;;;5057080;28;20091;-76
2021/07/04 12:58:55;;;;;;;;;;;23.60;99.90;;;;;;5066922;28;20086;-79
2021/07/04 13:01:31;;;;;;;2.10;1.50;;;23.10;99.90;;;;;;5070483;28;19916;-77
2021/07/04 13:04:03;;;;;;;2.85;1.85;;;23.00;99.90;;;;;;5062247;28;20043;-77
2021/07/04 13:06:40;;;;;;;3.38;1.90;;;22.90;99.90;;;;;;5059566;28;20020;-78
2021/07/04 13:09:09;;;;;;;2.22;1.23;;;22.60;97.00;;;;;;5071948;28;20384;-77
2021/07/04 13:11:35;;;;;;;3.50;1.35;;;22.10;99.10;;;;;;5057203;28;20025;-77
2021/07/04 13:14:05;;;;;;;2.63;1.30;;;21.20;99.90;;;;;;5057751;28;20032;-77
2021/07/04 13:16:31;;;;;;;3.35;1.55;;;;;;;;;;5054744;28;20088;-78
2021/07/04 13:19:16;;;;;;;2.72;1.30;;;19.90;99.90;;;;;;5071734;28;20033;-78
2021/07/04 13:21:42;;;;;;;4.13;1.50;;;;;;;;;;5076978;28;20553;-76
2021/07/04 13:24:14;;;;;;;2.67;1.40;;;;;;;;;;5071831;28;20055;-78